sensor_id;sensor_type;location;lat;lon;timestamp;P1;durP1;ratioP1;P2;durP2;ratioP2
9799;SDS011;4939;52.00085300;4.17406100;2023-07-28T00:00:16;10.93;;;4.15;;
9799;SDS011;4939;52.00085300;4.17406100;2023-07-28T00:02:42;11.40;;;3.78;;
9799;SDS011;4939;52.00085300;4.17406100;2023-07-28T00:05:07;11.93;;;3.50;;
9799;SDS011;4939;52.00085300;4.17406100;2023-07-28T00:07:33;10.40;;;3.97;;
9799;SDS011;4939;52.00085300;4.17406100;2023-07-28T00:10:00;14.90;;;4.10;;
9799;SDS011;4939;52.00085300;4.17406100;2023-07-28T00:12:26;15.10;;;4.28;;
9799;SDS011;4939;52.00085300;4.17406100;2023-07-28T00:14:52;16.13;;;4.50;;
9799;SDS011;4939;52.00085300;4.17406100;2023-07-28T00:17:17;16.02;;;4.60;;
9799;SDS011;4939;52.00085300;4.17406100;2023-07-28T00:19:43;14.25;;;3.72;;
9799;SDS011;4939;52.00085300;4.17406100;2023-07-28T00:22:09;15.65;;;4.53;;
9799;SDS011;4939;52.00085300;4.17406100;2023-07-28T00:24:34;15.55;;;4.60;;
9799;SDS011;4939;52.00085300;4.17406100;2023-07-28T00:27:00;13.38;;;4.18;;
9799;SDS011;4939;52.00085300;4.17406100;2023-07-28T00:29:25;13.80;;;4.53;;
9799;SDS011;4939;52.00085300;4.17406100;2023-07-28T00:31:51;12.85;;;4.15;;
9799;SDS011;4939;52.00085300;4.17406100;2023-07-28T00:34:18;14.35;;;4.10;;
9799;SDS011;4939;52.00085300;4.17406100;2023-07-28T00:36:43;12.68;;;4.13;;
9799;SDS011;4939;52.00085300;4.17406100;2023-07-28T00:39:09;13.40;;;4.90;;
9799;SDS011;4939;52.00085300;4.17406100;2023-07-28T00:41:34;14.18;;;4.60;;
9799;SDS011;4939;52.00085300;4.17406100;2023-07-28T00:44:00;16.55;;;4.20;;
9799;SDS011;4939;52.00085300;4.17406100;2023-07-28T00:46:26;13.95;;;4.60;;
9799;SDS011;4939;52.00085300;4.17406100;2023-07-28T00:48:51;15.45;;;4.13;;
9799;SDS011;4939;52.00085300;4.17406100;2023-07-28T00:51:18;17.83;;;4.25;;
9799;SDS011;4939;52.00085300;4.17406100;2023-07-28T00:53:44;14.55;;;4.68;;
9799;SDS011;4939;52.00085300;4.17406100;2023-07-28T00:56:10;15.73;;;4.43;;
9799;SDS011;4939;52.00085300;4.17406100;2023-07-28T00:58:37;16.05;;;4.10;;
9799;SDS011;4939;52.00085300;4.17406100;2023-07-28T01:01:02;18.70;;;4.70;;
9799;SDS011;4939;52.00085300;4.17406100;2023-07-28T01:03:28;14.88;;;4.35;;
9799;SDS011;4939;52.00085300;4.17406100;2023-07-28T01:06:08;18.40;;;5.20;;
9799;SDS011;4939;52.00085300;4.17406100;2023-07-28T01:11:14;16.08;;;4.50;;
9799;SDS011;4939;52.00085300;4.17406100;2023-07-28T01:13:40;14.82;;;4.65;;
9799;SDS011;4939;52.00085300;4.17406100;2023-07-28T01:16:06;17.92;;;4.50;;
9799;SDS011;4939;52.00085300;4.17406100;2023-07-28T01:18:33;12.52;;;3.60;;
9799;SDS011;4939;52.00085300;4.17406100;2023-07-28T01:21:00;14.75;;;4.03;;
9799;SDS011;4939;52.00085300;4.17406100;2023-07-28T01:23:41;15.55;;;4.20;;
9799;SDS011;4939;52.00085300;4.17406100;2023-07-28T01:26:25;14.88;;;4.55;;
9799;SDS011;4939;52.00085300;4.17406100;2023-07-28T01:28:55;11.77;;;4.38;;
9799;SDS011;4939;52.00085300;4.17406100;2023-07-28T01:31:21;16.30;;;4.18;;
9799;SDS011;4939;52.00085300;4.17406100;2023-07-28T01:33:46;15.43;;;5.20;;
9799;SDS011;4939;52.00085300;4.17406100;2023-07-28T01:36:12;17.23;;;4.50;;
9799;SDS011;4939;52.00085300;4.17406100;2023-07-28T01:38:38;21.27;;;5.68;;
9799;SDS011;4939;52.00085300;4.17406100;2023-07-28T01:41:04;19.30;;;4.57;;
9799;SDS011;4939;52.00085300;4.17406100;2023-07-28T01:43:29;17.88;;;5.07;;
9799;SDS011;4939;52.00085300;4.17406100;2023-07-28T01:45:55;17.30;;;5.00;;
9799;SDS011;4939;52.00085300;4.17406100;2023-07-28T01:48:22;16.95;;;5.15;;
9799;SDS011;4939;52.00085300;4.17406100;2023-07-28T01:50:47;16.70;;;4.57;;
9799;SDS011;4939;52.00085300;4.17406100;2023-07-28T01:53:13;16.40;;;4.50;;
9799;SDS011;4939;52.00085300;4.17406100;2023-07-28T01:55:38;16.67;;;5.05;;
9799;SDS011;4939;52.00085300;4.17406100;2023-07-28T01:58:05;15.90;;;5.18;;
9799;SDS011;4939;52.00085300;4.17406100;2023-07-28T02:00:31;15.02;;;4.50;;
9799;SDS011;4939;52.00085300;4.17406100;2023-07-28T02:02:56;15.90;;;4.85;;
9799;SDS011;4939;52.00085300;4.17406100;2023-07-28T02:05:23;21.48;;;6.07;;
9799;SDS011;4939;52.00085300;4.17406100;2023-07-28T02:07:49;20.65;;;5.38;;
9799;SDS011;4939;52.00085300;4.17406100;2023-07-28T02:10:15;20.20;;;4.60;;
9799;SDS011;4939;52.00085300;4.17406100;2023-07-28T02:12:40;25.58;;;5.82;;
9799;SDS011;4939;52.00085300;4.17406100;2023-07-28T02:15:06;15.48;;;4.82;;
9799;SDS011;4939;52.00085300;4.17406100;2023-07-28T02:17:32;17.52;;;4.95;;
9799;SDS011;4939;52.00085300;4.17406100;2023-07-28T02:19:58;20.75;;;5.18;;
9799;SDS011;4939;52.00085300;4.17406100;2023-07-28T02:22:24;16.58;;;4.70;;
9799;SDS011;4939;52.00085300;4.17406100;2023-07-28T02:24:50;19.75;;;5.20;;
9799;SDS011;4939;52.00085300;4.17406100;2023-07-28T02:27:15;17.92;;;4.90;;
9799;SDS011;4939;52.00085300;4.17406100;2023-07-28T02:29:41;16.45;;;5.13;;
9799;SDS011;4939;52.00085300;4.17406100;2023-07-28T02:32:07;16.00;;;4.43;;
9799;SDS011;4939;52.00085300;4.17406100;2023-07-28T02:34:33;16.13;;;4.38;;
9799;SDS011;4939;52.00085300;4.17406100;2023-07-28T02:36:58;15.10;;;4.90;;
9799;SDS011;4939;52.00085300;4.17406100;2023-07-28T02:39:24;14.60;;;4.50;;
9799;SDS011;4939;52.00085300;4.17406100;2023-07-28T02:41:50;19.45;;;5.32;;
9799;SDS011;4939;52.00085300;4.17406100;2023-07-28T02:44:15;21.85;;;5.43;;
9799;SDS011;4939;52.00085300;4.17406100;2023-07-28T02:46:41;16.73;;;4.85;;
9799;SDS011;4939;52.00085300;4.17406100;2023-07-28T02:49:07;14.05;;;4.80;;
9799;SDS011;4939;52.00085300;4.17406100;2023-07-28T02:51:32;14.95;;;5.40;;
9799;SDS011;4939;52.00085300;4.17406100;2023-07-28T02:53:59;17.42;;;5.10;;
9799;SDS011;4939;52.00085300;4.17406100;2023-07-28T02:56:25;19.35;;;5.05;;
9799;SDS011;4939;52.00085300;4.17406100;2023-07-28T02:58:50;19.83;;;5.60;;
9799;SDS011;4939;52.00085300;4.17406100;2023-07-28T03:01:16;15.10;;;4.90;;
9799;SDS011;4939;52.00085300;4.17406100;2023-07-28T03:03:42;18.02;;;4.95;;
9799;SDS011;4939;52.00085300;4.17406100;2023-07-28T03:06:08;19.52;;;5.18;;
9799;SDS011;4939;52.00085300;4.17406100;2023-07-28T03:08:34;15.00;;;5.00;;
9799;SDS011;4939;52.00085300;4.17406100;2023-07-28T03:11:00;17.25;;;5.25;;
9799;SDS011;4939;52.00085300;4.17406100;2023-07-28T03:13:30;17.40;;;5.43;;
9799;SDS011;4939;52.00085300;4.17406100;2023-07-28T03:15:55;20.48;;;5.60;;
9799;SDS011;4939;52.00085300;4.17406100;2023-07-28T03:18:21;18.08;;;5.20;;
9799;SDS011;4939;52.00085300;4.17406100;2023-07-28T03:20:47;12.77;;;5.32;;
9799;SDS011;4939;52.00085300;4.17406100;2023-07-28T03:23:12;17.15;;;5.55;;
9799;SDS011;4939;52.00085300;4.17406100;2023-07-28T03:25:38;21.58;;;5.63;;
9799;SDS011;4939;52.00085300;4.17406100;2023-07-28T03:28:04;17.70;;;5.63;;
9799;SDS011;4939;52.00085300;4.17406100;2023-07-28T03:30:29;15.25;;;4.90;;
9799;SDS011;4939;52.00085300;4.17406100;2023-07-28T03:32:55;15.07;;;4.95;;
9799;SDS011;4939;52.00085300;4.17406100;2023-07-28T03:35:23;17.30;;;5.63;;
9799;SDS011;4939;52.00085300;4.17406100;2023-07-28T03:37:48;16.20;;;5.63;;
9799;SDS011;4939;52.00085300;4.17406100;2023-07-28T03:40:14;17.42;;;5.20;;
9799;SDS011;4939;52.00085300;4.17406100;2023-07-28T03:42:41;17.23;;;6.07;;
9799;SDS011;4939;52.00085300;4.17406100;2023-07-28T03:45:07;13.90;;;4.72;;
9799;SDS011;4939;52.00085300;4.17406100;2023-07-28T03:47:33;16.60;;;4.80;;
9799;SDS011;4939;52.00085300;4.17406100;2023-07-28T03:49:58;20.15;;;5.88;;
9799;SDS011;4939;52.00085300;4.17406100;2023-07-28T03:52:24;18.80;;;5.25;;
9799;SDS011;4939;52.00085300;4.17406100;2023-07-28T03:54:50;14.85;;;4.80;;
9799;SDS011;4939;52.00085300;4.17406100;2023-07-28T03:57:15;17.65;;;5.72;;
9799;SDS011;4939;52.00085300;4.17406100;2023-07-28T03:59:41;17.42;;;5.65;;
9799;SDS011;4939;52.00085300;4.17406100;2023-07-28T04:02:06;14.98;;;4.57;;
9799;SDS011;4939;52.00085300;4.17406100;2023-07-28T04:04:32;16.45;;;5.35;;
9799;SDS011;4939;52.00085300;4.17406100;2023-07-28T04:06:58;11.85;;;5.40;;
9799;SDS011;4939;52.00085300;4.17406100;2023-07-28T04:09:23;15.18;;;4.93;;
9799;SDS011;4939;52.00085300;4.17406100;2023-07-28T04:11:49;18.27;;;4.80;;
9799;SDS011;4939;52.00085300;4.17406100;2023-07-28T04:14:15;14.98;;;5.63;;
9799;SDS011;4939;52.00085300;4.17406100;2023-07-28T04:16:40;23.40;;;5.93;;
9799;SDS011;4939;52.00085300;4.17406100;2023-07-28T04:19:06;10.65;;;4.72;;
9799;SDS011;4939;52.00085300;4.17406100;2023-07-28T04:21:32;13.75;;;5.10;;
9799;SDS011;4939;52.00085300;4.17406100;2023-07-28T04:23:57;16.20;;;5.55;;
9799;SDS011;4939;52.00085300;4.17406100;2023-07-28T04:26:23;13.85;;;4.80;;
9799;SDS011;4939;52.00085300;4.17406100;2023-07-28T04:28:49;12.60;;;5.30;;
9799;SDS011;4939;52.00085300;4.17406100;2023-07-28T04:31:15;13.20;;;5.40;;
9799;SDS011;4939;52.00085300;4.17406100;2023-07-28T04:33:41;19.95;;;5.18;;
9799;SDS011;4939;52.00085300;4.17406100;2023-07-28T04:36:07;15.25;;;5.32;;
9799;SDS011;4939;52.00085300;4.17406100;2023-07-28T04:38:33;15.38;;;5.28;;
9799;SDS011;4939;52.00085300;4.17406100;2023-07-28T04:40:59;15.05;;;5.15;;
9799;SDS011;4939;52.00085300;4.17406100;2023-07-28T04:43:25;13.93;;;5.50;;
9799;SDS011;4939;52.00085300;4.17406100;2023-07-28T04:45:51;16.73;;;5.47;;
9799;SDS011;4939;52.00085300;4.17406100;2023-07-28T04:48:16;13.95;;;5.72;;
9799;SDS011;4939;52.00085300;4.17406100;2023-07-28T04:50:42;15.27;;;5.32;;
9799;SDS011;4939;52.00085300;4.17406100;2023-07-28T04:53:07;12.18;;;4.88;;
9799;SDS011;4939;52.00085300;4.17406100;2023-07-28T04:55:33;17.15;;;5.47;;
9799;SDS011;4939;52.00085300;4.17406100;2023-07-28T04:57:58;12.52;;;5.15;;
9799;SDS011;4939;52.00085300;4.17406100;2023-07-28T05:00:24;14.45;;;5.47;;
9799;SDS011;4939;52.00085300;4.17406100;2023-07-28T05:02:50;15.70;;;5.47;;
9799;SDS011;4939;52.00085300;4.17406100;2023-07-28T05:05:15;16.23;;;5.43;;
9799;SDS011;4939;52.00085300;4.17406100;2023-07-28T05:07:41;14.18;;;5.47;;
9799;SDS011;4939;52.00085300;4.17406100;2023-07-28T05:10:07;17.45;;;5.07;;
9799;SDS011;4939;52.00085300;4.17406100;2023-07-28T05:12:33;19.27;;;5.78;;
9799;SDS011;4939;52.00085300;4.17406100;2023-07-28T05:14:59;13.52;;;5.13;;
9799;SDS011;4939;52.00085300;4.17406100;2023-07-28T05:17:24;13.30;;;4.88;;
9799;SDS011;4939;52.00085300;4.17406100;2023-07-28T05:19:50;12.70;;;5.10;;
9799;SDS011;4939;52.00085300;4.17406100;2023-07-28T05:22:16;14.90;;;5.13;;
9799;SDS011;4939;52.00085300;4.17406100;2023-07-28T05:24:42;15.43;;;5.18;;
9799;SDS011;4939;52.00085300;4.17406100;2023-07-28T05:27:09;10.45;;;4.70;;
9799;SDS011;4939;52.00085300;4.17406100;2023-07-28T05:29:35;12.63;;;5.25;;
9799;SDS011;4939;52.00085300;4.17406100;2023-07-28T05:32:01;12.02;;;4.80;;
9799;SDS011;4939;52.00085300;4.17406100;2023-07-28T05:34:26;12.77;;;5.50;;
9799;SDS011;4939;52.00085300;4.17406100;2023-07-28T05:36:52;13.25;;;5.32;;
9799;SDS011;4939;52.00085300;4.17406100;2023-07-28T05:39:18;13.73;;;4.75;;
9799;SDS011;4939;52.00085300;4.17406100;2023-07-28T05:41:43;11.45;;;5.05;;
9799;SDS011;4939;52.00085300;4.17406100;2023-07-28T05:44:09;11.98;;;4.80;;
9799;SDS011;4939;52.00085300;4.17406100;2023-07-28T05:46:34;11.40;;;4.82;;
9799;SDS011;4939;52.00085300;4.17406100;2023-07-28T05:49:00;14.52;;;5.05;;
9799;SDS011;4939;52.00085300;4.17406100;2023-07-28T05:51:26;12.73;;;5.28;;
9799;SDS011;4939;52.00085300;4.17406100;2023-07-28T05:53:51;14.15;;;5.20;;
9799;SDS011;4939;52.00085300;4.17406100;2023-07-28T05:56:17;11.32;;;5.35;;
9799;SDS011;4939;52.00085300;4.17406100;2023-07-28T05:58:47;14.18;;;5.78;;
9799;SDS011;4939;52.00085300;4.17406100;2023-07-28T06:01:13;14.43;;;4.72;;
9799;SDS011;4939;52.00085300;4.17406100;2023-07-28T06:03:39;9.25;;;4.78;;
9799;SDS011;4939;52.00085300;4.17406100;2023-07-28T06:06:04;13.50;;;5.05;;
9799;SDS011;4939;52.00085300;4.17406100;2023-07-28T06:08:30;14.35;;;5.40;;
9799;SDS011;4939;52.00085300;4.17406100;2023-07-28T06:10:56;12.93;;;5.10;;
9799;SDS011;4939;52.00085300;4.17406100;2023-07-28T06:13:23;12.02;;;5.00;;
9799;SDS011;4939;52.00085300;4.17406100;2023-07-28T06:15:48;14.60;;;5.20;;
9799;SDS011;4939;52.00085300;4.17406100;2023-07-28T06:18:14;12.13;;;5.07;;
9799;SDS011;4939;52.00085300;4.17406100;2023-07-28T06:20:41;13.73;;;4.97;;
9799;SDS011;4939;52.00085300;4.17406100;2023-07-28T06:23:07;12.75;;;4.93;;
9799;SDS011;4939;52.00085300;4.17406100;2023-07-28T06:25:33;16.23;;;4.80;;
9799;SDS011;4939;52.00085300;4.17406100;2023-07-28T06:27:59;9.38;;;4.53;;
9799;SDS011;4939;52.00085300;4.17406100;2023-07-28T06:30:24;12.55;;;4.90;;
9799;SDS011;4939;52.00085300;4.17406100;2023-07-28T06:32:51;8.88;;;4.25;;
9799;SDS011;4939;52.00085300;4.17406100;2023-07-28T06:35:16;11.38;;;4.57;;
9799;SDS011;4939;52.00085300;4.17406100;2023-07-28T06:37:42;10.23;;;4.90;;
9799;SDS011;4939;52.00085300;4.17406100;2023-07-28T06:40:08;12.45;;;4.65;;
9799;SDS011;4939;52.00085300;4.17406100;2023-07-28T06:42:35;11.05;;;4.68;;
9799;SDS011;4939;52.00085300;4.17406100;2023-07-28T06:45:02;9.65;;;4.45;;
9799;SDS011;4939;52.00085300;4.17406100;2023-07-28T06:47:28;10.70;;;5.00;;
9799;SDS011;4939;52.00085300;4.17406100;2023-07-28T06:49:54;11.85;;;4.32;;
9799;SDS011;4939;52.00085300;4.17406100;2023-07-28T06:52:20;9.60;;;4.50;;
9799;SDS011;4939;52.00085300;4.17406100;2023-07-28T06:54:46;10.73;;;4.72;;
9799;SDS011;4939;52.00085300;4.17406100;2023-07-28T06:57:14;8.60;;;4.40;;
9799;SDS011;4939;52.00085300;4.17406100;2023-07-28T06:59:40;11.63;;;4.55;;
9799;SDS011;4939;52.00085300;4.17406100;2023-07-28T07:02:07;9.98;;;4.45;;
9799;SDS011;4939;52.00085300;4.17406100;2023-07-28T07:04:33;11.75;;;4.60;;
9799;SDS011;4939;52.00085300;4.17406100;2023-07-28T07:06:58;9.18;;;4.07;;
9799;SDS011;4939;52.00085300;4.17406100;2023-07-28T07:09:24;9.75;;;4.00;;
9799;SDS011;4939;52.00085300;4.17406100;2023-07-28T07:11:50;11.95;;;4.57;;
9799;SDS011;4939;52.00085300;4.17406100;2023-07-28T07:14:16;11.10;;;4.30;;
9799;SDS011;4939;52.00085300;4.17406100;2023-07-28T07:16:41;8.85;;;3.90;;
9799;SDS011;4939;52.00085300;4.17406100;2023-07-28T07:19:07;11.55;;;4.10;;
9799;SDS011;4939;52.00085300;4.17406100;2023-07-28T07:21:34;11.77;;;4.43;;
9799;SDS011;4939;52.00085300;4.17406100;2023-07-28T07:23:59;9.70;;;3.72;;
9799;SDS011;4939;52.00085300;4.17406100;2023-07-28T07:26:25;6.82;;;3.63;;
9799;SDS011;4939;52.00085300;4.17406100;2023-07-28T07:28:52;8.32;;;3.75;;
9799;SDS011;4939;52.00085300;4.17406100;2023-07-28T07:31:18;10.75;;;3.92;;
9799;SDS011;4939;52.00085300;4.17406100;2023-07-28T07:33:44;9.00;;;3.83;;
9799;SDS011;4939;52.00085300;4.17406100;2023-07-28T07:36:13;9.20;;;3.85;;
9799;SDS011;4939;52.00085300;4.17406100;2023-07-28T07:38:39;8.98;;;4.07;;
9799;SDS011;4939;52.00085300;4.17406100;2023-07-28T07:41:07;12.88;;;3.78;;
9799;SDS011;4939;52.00085300;4.17406100;2023-07-28T07:43:33;9.00;;;4.00;;
9799;SDS011;4939;52.00085300;4.17406100;2023-07-28T07:45:59;12.27;;;4.03;;
9799;SDS011;4939;52.00085300;4.17406100;2023-07-28T07:48:25;11.48;;;4.03;;
9799;SDS011;4939;52.00085300;4.17406100;2023-07-28T07:50:51;11.88;;;4.47;;
9799;SDS011;4939;52.00085300;4.17406100;2023-07-28T07:53:17;8.95;;;3.70;;
9799;SDS011;4939;52.00085300;4.17406100;2023-07-28T07:55:43;11.20;;;4.65;;
9799;SDS011;4939;52.00085300;4.17406100;2023-07-28T07:58:08;9.30;;;3.97;;
9799;SDS011;4939;52.00085300;4.17406100;2023-07-28T08:00:36;9.05;;;4.03;;
9799;SDS011;4939;52.00085300;4.17406100;2023-07-28T08:03:02;9.90;;;4.28;;
9799;SDS011;4939;52.00085300;4.17406100;2023-07-28T08:05:29;10.30;;;4.40;;
9799;SDS011;4939;52.00085300;4.17406100;2023-07-28T08:07:55;10.02;;;3.97;;
9799;SDS011;4939;52.00085300;4.17406100;2023-07-28T08:10:21;12.48;;;4.38;;
9799;SDS011;4939;52.00085300;4.17406100;2023-07-28T08:12:47;8.88;;;4.10;;
9799;SDS011;4939;52.00085300;4.17406100;2023-07-28T08:15:13;9.57;;;4.00;;
9799;SDS011;4939;52.00085300;4.17406100;2023-07-28T08:17:39;8.23;;;3.63;;
9799;SDS011;4939;52.00085300;4.17406100;2023-07-28T08:20:08;8.98;;;3.60;;
9799;SDS011;4939;52.00085300;4.17406100;2023-07-28T08:22:34;9.23;;;3.97;;
9799;SDS011;4939;52.00085300;4.17406100;2023-07-28T08:24:59;7.07;;;3.70;;
9799;SDS011;4939;52.00085300;4.17406100;2023-07-28T08:27:26;9.25;;;3.90;;
9799;SDS011;4939;52.00085300;4.17406100;2023-07-28T08:29:51;14.00;;;4.10;;
9799;SDS011;4939;52.00085300;4.17406100;2023-07-28T08:32:17;11.98;;;4.22;;
9799;SDS011;4939;52.00085300;4.17406100;2023-07-28T08:34:43;9.75;;;4.28;;
9799;SDS011;4939;52.00085300;4.17406100;2023-07-28T08:37:08;11.30;;;4.43;;
9799;SDS011;4939;52.00085300;4.17406100;2023-07-28T08:39:34;13.30;;;4.13;;
9799;SDS011;4939;52.00085300;4.17406100;2023-07-28T08:42:00;9.57;;;3.33;;
9799;SDS011;4939;52.00085300;4.17406100;2023-07-28T08:44:30;9.95;;;4.38;;
9799;SDS011;4939;52.00085300;4.17406100;2023-07-28T08:46:57;10.90;;;4.43;;
9799;SDS011;4939;52.00085300;4.17406100;2023-07-28T08:49:27;9.13;;;3.70;;
9799;SDS011;4939;52.00085300;4.17406100;2023-07-28T08:51:56;9.85;;;3.63;;
9799;SDS011;4939;52.00085300;4.17406100;2023-07-28T08:54:23;8.25;;;3.63;;
9799;SDS011;4939;52.00085300;4.17406100;2023-07-28T08:56:49;10.65;;;3.60;;
9799;SDS011;4939;52.00085300;4.17406100;2023-07-28T08:59:25;8.55;;;3.45;;
9799;SDS011;4939;52.00085300;4.17406100;2023-07-28T09:01:53;11.60;;;3.88;;
9799;SDS011;4939;52.00085300;4.17406100;2023-07-28T09:04:21;9.55;;;4.00;;
9799;SDS011;4939;52.00085300;4.17406100;2023-07-28T09:06:47;7.28;;;3.38;;
9799;SDS011;4939;52.00085300;4.17406100;2023-07-28T09:09:14;14.55;;;3.80;;
9799;SDS011;4939;52.00085300;4.17406100;2023-07-28T09:11:53;9.25;;;4.50;;
9799;SDS011;4939;52.00085300;4.17406100;2023-07-28T09:14:20;11.73;;;3.88;;
9799;SDS011;4939;52.00085300;4.17406100;2023-07-28T09:16:48;13.63;;;3.80;;
9799;SDS011;4939;52.00085300;4.17406100;2023-07-28T09:19:14;14.13;;;4.10;;
9799;SDS011;4939;52.00085300;4.17406100;2023-07-28T09:21:43;13.93;;;4.03;;
9799;SDS011;4939;52.00085300;4.17406100;2023-07-28T09:24:12;9.32;;;3.50;;
9799;SDS011;4939;52.00085300;4.17406100;2023-07-28T09:26:42;10.57;;;3.75;;
9799;SDS011;4939;52.00085300;4.17406100;2023-07-28T09:29:19;13.50;;;3.47;;
9799;SDS011;4939;52.00085300;4.17406100;2023-07-28T09:31:46;6.40;;;3.30;;
9799;SDS011;4939;52.00085300;4.17406100;2023-07-28T09:34:22;7.32;;;3.30;;
9799;SDS011;4939;52.00085300;4.17406100;2023-07-28T09:36:57;9.23;;;3.67;;
9799;SDS011;4939;52.00085300;4.17406100;2023-07-28T09:39:23;10.88;;;3.40;;
9799;SDS011;4939;52.00085300;4.17406100;2023-07-28T09:41:50;10.45;;;3.75;;
9799;SDS011;4939;52.00085300;4.17406100;2023-07-28T09:44:16;10.00;;;3.40;;
9799;SDS011;4939;52.00085300;4.17406100;2023-07-28T09:47:03;11.65;;;3.58;;
9799;SDS011;4939;52.00085300;4.17406100;2023-07-28T09:49:34;11.88;;;3.30;;
9799;SDS011;4939;52.00085300;4.17406100;2023-07-28T09:52:05;12.07;;;4.28;;
9799;SDS011;4939;52.00085300;4.17406100;2023-07-28T09:54:38;8.30;;;3.28;;
9799;SDS011;4939;52.00085300;4.17406100;2023-07-28T09:57:07;8.48;;;3.20;;
9799;SDS011;4939;52.00085300;4.17406100;2023-07-28T09:59:38;6.65;;;2.90;;
9799;SDS011;4939;52.00085300;4.17406100;2023-07-28T10:02:06;10.52;;;3.65;;
9799;SDS011;4939;52.00085300;4.17406100;2023-07-28T10:04:32;6.55;;;3.17;;
9799;SDS011;4939;52.00085300;4.17406100;2023-07-28T10:06:59;5.28;;;2.30;;
9799;SDS011;4939;52.00085300;4.17406100;2023-07-28T10:09:27;4.45;;;2.40;;
9799;SDS011;4939;52.00085300;4.17406100;2023-07-28T10:11:55;6.30;;;2.92;;
9799;SDS011;4939;52.00085300;4.17406100;2023-07-28T10:14:28;7.47;;;2.40;;
9799;SDS011;4939;52.00085300;4.17406100;2023-07-28T10:16:56;8.15;;;2.92;;
9799;SDS011;4939;52.00085300;4.17406100;2023-07-28T10:19:26;8.82;;;3.00;;
9799;SDS011;4939;52.00085300;4.17406100;2023-07-28T10:22:01;6.95;;;2.95;;
9799;SDS011;4939;52.00085300;4.17406100;2023-07-28T10:27:37;7.00;;;2.65;;
9799;SDS011;4939;52.00085300;4.17406100;2023-07-28T10:30:04;6.55;;;2.88;;
9799;SDS011;4939;52.00085300;4.17406100;2023-07-28T10:32:40;7.07;;;2.60;;
9799;SDS011;4939;52.00085300;4.17406100;2023-07-28T10:37:36;5.75;;;2.60;;
9799;SDS011;4939;52.00085300;4.17406100;2023-07-28T10:43:00;6.03;;;2.33;;
9799;SDS011;4939;52.00085300;4.17406100;2023-07-28T10:47:58;5.32;;;2.50;;
9799;SDS011;4939;52.00085300;4.17406100;2023-07-28T10:50:29;4.90;;;2.30;;
9799;SDS011;4939;52.00085300;4.17406100;2023-07-28T10:52:56;5.60;;;2.45;;
9799;SDS011;4939;52.00085300;4.17406100;2023-07-28T10:55:23;8.40;;;2.95;;
9799;SDS011;4939;52.00085300;4.17406100;2023-07-28T10:57:50;4.45;;;2.15;;
9799;SDS011;4939;52.00085300;4.17406100;2023-07-28T11:00:17;5.03;;;2.30;;
9799;SDS011;4939;52.00085300;4.17406100;2023-07-28T11:05:21;5.88;;;2.47;;
9799;SDS011;4939;52.00085300;4.17406100;2023-07-28T11:07:48;5.72;;;2.35;;
9799;SDS011;4939;52.00085300;4.17406100;2023-07-28T11:10:20;7.97;;;2.80;;
9799;SDS011;4939;52.00085300;4.17406100;2023-07-28T11:12:47;5.53;;;2.90;;
9799;SDS011;4939;52.00085300;4.17406100;2023-07-28T11:15:14;6.45;;;2.83;;
9799;SDS011;4939;52.00085300;4.17406100;2023-07-28T11:17:41;6.70;;;2.78;;
9799;SDS011;4939;52.00085300;4.17406100;2023-07-28T11:20:19;5.85;;;2.55;;
9799;SDS011;4939;52.00085300;4.17406100;2023-07-28T11:22:56;4.97;;;2.88;;
9799;SDS011;4939;52.00085300;4.17406100;2023-07-28T11:25:24;9.15;;;3.72;;
9799;SDS011;4939;52.00085300;4.17406100;2023-07-28T11:27:51;8.60;;;3.70;;
9799;SDS011;4939;52.00085300;4.17406100;2023-07-28T11:30:17;9.07;;;3.53;;
9799;SDS011;4939;52.00085300;4.17406100;2023-07-28T11:32:46;8.50;;;3.03;;
9799;SDS011;4939;52.00085300;4.17406100;2023-07-28T11:35:13;8.32;;;3.45;;
9799;SDS011;4939;52.00085300;4.17406100;2023-07-28T11:37:40;8.50;;;3.50;;
9799;SDS011;4939;52.00085300;4.17406100;2023-07-28T11:40:08;9.32;;;3.40;;
9799;SDS011;4939;52.00085300;4.17406100;2023-07-28T11:42:38;10.50;;;4.00;;
9799;SDS011;4939;52.00085300;4.17406100;2023-07-28T11:45:07;7.38;;;3.60;;
9799;SDS011;4939;52.00085300;4.17406100;2023-07-28T11:47:35;8.02;;;2.97;;
9799;SDS011;4939;52.00085300;4.17406100;2023-07-28T11:50:01;9.05;;;2.90;;
9799;SDS011;4939;52.00085300;4.17406100;2023-07-28T11:52:31;5.72;;;2.95;;
9799;SDS011;4939;52.00085300;4.17406100;2023-07-28T11:55:01;6.45;;;3.47;;
9799;SDS011;4939;52.00085300;4.17406100;2023-07-28T11:57:31;6.82;;;2.97;;
9799;SDS011;4939;52.00085300;4.17406100;2023-07-28T12:00:01;7.75;;;2.90;;
9799;SDS011;4939;52.00085300;4.17406100;2023-07-28T12:02:31;6.13;;;2.80;;
9799;SDS011;4939;52.00085300;4.17406100;2023-07-28T12:04:58;5.97;;;3.08;;
9799;SDS011;4939;52.00085300;4.17406100;2023-07-28T12:07:28;8.95;;;3.00;;
9799;SDS011;4939;52.00085300;4.17406100;2023-07-28T12:09:56;6.00;;;2.25;;
9799;SDS011;4939;52.00085300;4.17406100;2023-07-28T12:12:26;5.50;;;2.50;;
9799;SDS011;4939;52.00085300;4.17406100;2023-07-28T12:14:54;6.03;;;2.38;;
9799;SDS011;4939;52.00085300;4.17406100;2023-07-28T12:17:30;5.60;;;2.47;;
9799;SDS011;4939;52.00085300;4.17406100;2023-07-28T12:19:57;6.30;;;2.63;;
9799;SDS011;4939;52.00085300;4.17406100;2023-07-28T12:22:24;6.05;;;2.35;;
9799;SDS011;4939;52.00085300;4.17406100;2023-07-28T12:24:50;4.40;;;2.40;;
9799;SDS011;4939;52.00085300;4.17406100;2023-07-28T12:27:15;4.75;;;2.22;;
9799;SDS011;4939;52.00085300;4.17406100;2023-07-28T12:29:41;5.28;;;2.22;;
9799;SDS011;4939;52.00085300;4.17406100;2023-07-28T12:32:07;4.25;;;2.35;;
9799;SDS011;4939;52.00085300;4.17406100;2023-07-28T12:34:34;5.65;;;2.70;;
9799;SDS011;4939;52.00085300;4.17406100;2023-07-28T12:36:59;6.40;;;1.90;;
9799;SDS011;4939;52.00085300;4.17406100;2023-07-28T12:39:25;4.20;;;2.10;;
9799;SDS011;4939;52.00085300;4.17406100;2023-07-28T12:41:51;4.35;;;1.80;;
9799;SDS011;4939;52.00085300;4.17406100;2023-07-28T12:44:19;7.05;;;2.25;;
9799;SDS011;4939;52.00085300;4.17406100;2023-07-28T12:46:45;4.00;;;2.13;;
9799;SDS011;4939;52.00085300;4.17406100;2023-07-28T12:49:11;4.82;;;1.92;;
9799;SDS011;4939;52.00085300;4.17406100;2023-07-28T12:51:37;3.28;;;1.80;;
9799;SDS011;4939;52.00085300;4.17406100;2023-07-28T12:54:02;4.43;;;1.60;;
9799;SDS011;4939;52.00085300;4.17406100;2023-07-28T12:56:29;2.58;;;1.40;;
9799;SDS011;4939;52.00085300;4.17406100;2023-07-28T12:58:55;3.70;;;1.40;;
9799;SDS011;4939;52.00085300;4.17406100;2023-07-28T13:01:21;2.47;;;1.40;;
9799;SDS011;4939;52.00085300;4.17406100;2023-07-28T13:03:46;3.28;;;1.40;;
9799;SDS011;4939;52.00085300;4.17406100;2023-07-28T13:06:12;3.00;;;1.40;;
9799;SDS011;4939;52.00085300;4.17406100;2023-07-28T13:08:38;2.35;;;1.40;;
9799;SDS011;4939;52.00085300;4.17406100;2023-07-28T13:11:04;3.15;;;1.42;;
9799;SDS011;4939;52.00085300;4.17406100;2023-07-28T13:13:30;1.40;;;1.10;;
9799;SDS011;4939;52.00085300;4.17406100;2023-07-28T13:15:56;2.05;;;0.90;;
9799;SDS011;4939;52.00085300;4.17406100;2023-07-28T13:18:23;3.10;;;1.23;;